Time;durP1;ratioP1;P1;durP2;ratioP2;P2;SDS_P1;SDS_P2;PMS_P1;PMS_P2;Temp;Humidity;BMP_temperature;BMP_pressure;BME280_temperature;BME280_humidity;BME280_pressure;Samples;Min_cycle;Max_cycle;Signal;HPM_P1;HPM_P2
2022/06/23 00:04:29;;;;;;;1.70;0.70;;;;;;;17.33;71.92;98015.03;15279641;19;20011;-56
2022/06/23 00:09:43;;;;;;;2.15;0.50;;;;;;;17.24;73.00;98020.69;15277672;19;20015;-57
2022/06/23 00:14:50;;;;;;;2.25;0.70;;;;;;;17.22;72.22;98022.81;15283087;19;20010;-57
2022/06/23 00:19:56;;;;;;;0.70;0.50;;;;;;;17.23;72.69;98024.47;15283460;19;21073;-52
2022/06/23 00:25:07;;;;;;;2.20;0.60;;;;;;;17.20;73.88;98033.09;15279021;19;20010;-57
2022/06/23 00:30:23;;;;;;;2.97;0.68;;;;;;;17.15;76.95;98032.88;15277717;19;20018;-57
2022/06/23 00:35:30;;;;;;;2.35;0.60;;;;;;;17.08;76.06;98030.16;15280029;19;20014;-56
2022/06/23 00:40:38;;;;;;;1.25;0.50;;;;;;;17.01;80.29;98023.91;15275335;19;20014;-56
2022/06/23 00:45:50;;;;;;;1.92;0.65;;;;;;;16.89;85.17;98020.97;15288799;19;20018;-63
2022/06/23 00:51:05;;;;;;;1.55;0.60;;;;;;;16.73;85.50;98026.88;15282264;19;20022;-50
2022/06/23 00:56:25;;;;;;;1.48;0.85;;;;;;;16.57;85.74;98031.66;15284327;19;20031;-54
2022/06/23 01:01:41;;;;;;;0.98;0.75;;;;;;;16.48;87.52;98036.47;15276740;19;20018;-55
2022/06/23 01:06:54;;;;;;;1.63;0.80;;;;;;;16.43;90.41;98032.72;15281448;19;20014;-54
2022/06/23 01:12:06;;;;;;;3.50;0.77;;;;;;;16.29;95.82;98053.63;15277110;19;20015;-59
2022/06/23 01:17:18;;;;;;;2.35;0.50;;;;;;;16.18;96.06;98052.34;15280663;19;20006;-54
2022/06/23 01:22:31;;;;;;;0.80;0.50;;;;;;;16.08;98.13;98058.19;15278832;19;20479;-55
2022/06/23 01:28:04;;;;;;;2.40;0.60;;;;;;;16.04;99.38;98046.06;15290044;19;20025;-81
2022/06/23 01:33:18;;;;;;;1.10;0.60;;;;;;;15.90;100.00;98053.34;15287329;19;20039;-80
2022/06/23 01:38:30;;;;;;;1.30;0.63;;;;;;;15.88;100.00;98060.84;15293714;19;20007;-80
2022/06/23 01:43:44;;;;;;;2.58;0.60;;;;;;;15.80;100.00;98058.31;15291977;19;20499;-80
2022/06/23 01:48:58;;;;;;;1.42;0.52;;;;;;;15.74;100.00;98059.09;15293522;19;20026;-80
2022/06/23 01:54:12;;;;;;;2.47;0.80;;;;;;;15.69;100.00;98060.56;15291591;19;20009;-80
2022/06/23 01:59:42;;;;;;;0.90;0.60;;;;;;;15.65;100.00;98067.44;15294174;19;20577;-80
2022/06/23 02:04:54;;;;;;;1.70;0.70;;;;;;;15.54;100.00;98068.00;15298958;19;20038;-80
2022/06/23 02:10:04;;;;;;;1.92;0.80;;;;;;;15.46;100.00;98063.59;15292940;19;20245;-78
2022/06/23 02:15:17;;;;;;;1.40;0.57;;;;;;;15.30;100.00;98062.06;15278002;19;20448;-81
2022/06/23 02:20:33;;;;;;;2.45;0.70;;;;;;;15.23;100.00;98074.72;15286287;19;20018;-83
2022/06/23 02:25:45;;;;;;;1.25;0.70;;;;;;;15.15;100.00;98064.91;15283531;19;20019;-82
2022/06/23 02:30:57;;;;;;;1.48;0.75;;;;;;;15.08;100.00;98067.56;15293153;19;20018;-81
2022/06/23 02:36:14;;;;;;;1.77;0.75;;;;;;;15.02;100.00;98073.78;15283235;19;20024;-79
2022/06/23 02:41:24;;;;;;;0.95;0.65;;;;;;;14.95;100.00;98071.03;15287412;19;20014;-80
2022/06/23 02:47:00;;;;;;;1.02;0.60;;;;;;;14.92;100.00;98068.72;15275696;19;20022;-80
2022/06/23 02:52:31;;;;;;;2.60;0.60;;;;;;;14.88;100.00;98074.72;15289003;19;20018;-79
2022/06/23 02:57:41;;;;;;;;;;;;;;;14.83;100.00;98069.88;15281126;19;20018;-80
2022/06/23 03:02:59;;;;;;;1.38;0.80;;;;;;;14.78;100.00;98070.47;15308086;19;19915;-81
2022/06/23 03:08:20;;;;;;;0.60;0.60;;;;;;;14.74;100.00;98077.34;15341402;19;20006;-78
2022/06/23 03:13:34;;;;;;;1.90;0.70;;;;;;;14.70;100.00;98081.47;15327309;19;20351;-79
2022/06/23 03:18:50;;;;;;;2.50;0.75;;;;;;;14.62;100.00;98093.28;15303553;19;20010;-80
2022/06/23 03:24:01;;;;;;;3.40;0.80;;;;;;;14.57;100.00;98103.03;15280687;19;20018;-78
2022/06/23 03:29:15;;;;;;;3.20;1.13;;;;;;;14.48;100.00;98097.75;15297542;19;20015;-81
2022/06/23 03:34:27;;;;;;;1.25;0.65;;;;;;;14.44;100.00;98118.13;15299534;19;20685;-80
2022/06/23 03:45:01;;;;;;;1.25;0.75;;;;;;;14.28;100.00;98115.69;15289770;19;20013;-78
2022/06/23 03:50:22;;;;;;;2.10;0.80;;;;;;;14.24;100.00;98122.53;15303649;19;20046;-77
2022/06/23 03:55:31;;;;;;;2.65;0.80;;;;;;;14.21;100.00;98139.16;15301801;19;20011;-80
2022/06/23 04:00:39;;;;;;;2.10;0.65;;;;;;;14.21;100.00;98125.59;15306241;19;20042;-80
2022/06/23 04:06:29;;;;;;;1.63;0.90;;;;;;;14.24;100.00;98139.59;15302156;19;20018;-79
2022/06/23 04:11:47;;;;;;;1.88;0.70;;;;;;;14.26;100.00;98139.44;15305809;19;20014;-80
2022/06/23 04:16:57;;;;;;;2.60;0.75;;;;;;;14.26;100.00;98147.56;15290705;19;20011;-80
2022/06/23 04:22:08;;;;;;;1.65;0.70;;;;;;;14.27;100.00;98154.66;15311463;19;20006;-80
2022/06/23 04:27:21;;;;;;;1.57;0.80;;;;;;;14.28;100.00;98156.34;15294292;19;20022;-79
2022/06/23 04:32:29;;;;;;;1.60;0.77;;;;;;;14.30;100.00;98159.66;15305622;19;20519;-79
2022/06/23 04:37:41;;;;;;;1.98;0.85;;;;;;;14.38;100.00;98154.16;15283756;19;20050;-50
2022/06/23 04:42:58;;;;;;;1.83;0.80;;;;;;;14.47;100.00;98161.13;15281053;19;20361;-51
2022/06/23 04:48:08;;;;;;;4.00;1.02;;;;;;;14.55;100.00;98172.84;15274554;19;20010;-54
2022/06/23 04:53:22;;;;;;;1.73;0.90;;;;;;;14.64;100.00;98182.56;15279047;19;20022;-52
2022/06/23 04:58:32;;;;;;;1.90;1.02;;;;;;;14.73;100.00;98184.13;15274769;19;20039;-54
2022/06/23 05:03:40;;;;;;;1.67;0.80;;;;;;;14.84;100.00;98198.22;15278937;19;20015;-52
2022/06/23 05:08:48;;;;;;;2.28;0.90;;;;;;;14.93;100.00;98192.44;15280322;19;20014;-55
2022/06/23 05:14:00;;;;;;;1.88;1.00;;;;;;;15.04;100.00;98198.38;15278726;19;20010;-54
2022/06/23 05:19:10;;;;;;;1.92;1.00;;;;;;;15.14;100.00;98198.88;15274617;19;20018;-52
2022/06/23 05:24:20;;;;;;;4.30;0.88;;;;;;;15.29;100.00;98192.53;15274579;19;20018;-51
2022/06/23 05:29:36;;;;;;;1.95;1.08;;;;;;;15.44;100.00;98195.97;15277155;19;20637;-50
2022/06/23 05:34:49;;;;;;;3.00;1.08;;;;;;;15.62;100.00;98191.91;15274125;19;20078;-57
2022/06/23 05:40:14;;;;;;;3.03;0.90;;;;;;;15.78;100.00;98194.28;15278152;19;20047;-55
2022/06/23 05:45:26;;;;;;;2.38;0.90;;;;;;;15.95;100.00;98191.28;15273651;19;20038;-50
2022/06/23 05:50:39;;;;;;;3.80;1.00;;;;;;;16.11;100.00;98192.81;15275756;19;20449;-54
2022/06/23 05:55:50;;;;;;;2.08;1.08;;;;;;;16.29;100.00;98189.53;15274940;19;20101;-57
2022/06/23 06:01:06;;;;;;;2.70;1.00;;;;;;;16.53;100.00;98187.31;15278050;19;20495;-54
2022/06/23 06:06:13;;;;;;;2.90;1.20;;;;;;;16.70;100.00;98198.63;15263746;19;20011;-53
2022/06/23 06:11:18;;;;;;;2.38;0.95;;;;;;;16.96;100.00;98186.97;15276523;19;20051;-56
2022/06/23 06:16:26;;;;;;;2.08;0.90;;;;;;;17.17;100.00;98196.81;15273273;19;20014;-56
2022/06/23 06:21:31;;;;;;;2.75;1.10;;;;;;;17.40;100.00;98198.28;15273917;19;20357;-57
2022/06/23 06:26:42;;;;;;;1.80;1.00;;;;;;;17.52;100.00;98196.59;15269735;19;20014;-53
2022/06/23 06:31:54;;;;;;;3.40;1.13;;;;;;;17.74;100.00;98196.31;15275849;19;20010;-56
2022/06/23 06:37:00;;;;;;;2.53;1.00;;;;;;;17.95;100.00;98202.56;15273281;19;20019;-56
2022/06/23 06:42:11;;;;;;;5.45;1.00;;;;;;;18.24;100.00;98200.41;15290568;19;20234;-56
2022/06/23 06:47:23;;;;;;;2.15;1.00;;;;;;;18.41;100.00;98207.00;15284927;19;20606;-57
2022/06/23 06:52:29;;;;;;;1.90;0.85;;;;;;;18.65;100.00;98201.84;15289746;19;20021;-57
2022/06/23 06:57:39;;;;;;;3.38;0.77;;;;;;;18.86;100.00;98194.38;15280408;19;20018;-57
2022/06/23 07:02:50;;;;;;;2.15;0.82;;;;;;;19.07;100.00;98193.19;15292333;19;20066;-58
2022/06/23 07:08:03;;;;;;;3.22;0.75;;;;;;;19.47;100.00;98202.94;15278842;19;20798;-57
2022/06/23 07:13:13;;;;;;;2.45;0.70;;;;;;;19.73;100.00;98198.28;15289889;19;20043;-53
2022/06/23 07:18:27;;;;;;;1.63;0.90;;;;;;;19.96;100.00;98184.78;15288003;19;21330;-54
2022/06/23 07:23:37;;;;;;;1.67;0.70;;;;;;;20.29;100.00;98183.53;15287593;19;20015;-53
2022/06/23 07:28:46;;;;;;;2.03;0.88;;;;;;;20.57;95.48;98181.31;15283284;19;20018;-56
2022/06/23 07:34:00;;;;;;;1.02;0.70;;;;;;;20.80;92.80;98180.56;15285645;19;20017;-55
2022/06/23 07:39:10;;;;;;;3.58;0.80;;;;;;;21.08;90.39;98179.09;15280778;19;20055;-60
2022/06/23 07:44:20;;;;;;;1.33;0.60;;;;;;;21.30;82.09;98171.13;15282433;19;20256;-57
2022/06/23 07:49:28;;;;;;;3.17;0.70;;;;;;;21.71;74.57;98163.03;15286653;19;20006;-59
2022/06/23 07:54:34;;;;;;;2.75;0.70;;;;;;;22.19;66.94;98176.66;15284268;19;20031;-54
2022/06/23 07:59:43;;;;;;;1.77;0.80;;;;;;;22.60;62.88;98174.75;15280952;19;20006;-54
2022/06/23 08:04:59;;;;;;;1.25;0.40;;;;;;;22.87;60.20;98172.22;15281806;19;20010;-59
2022/06/23 08:10:09;;;;;;;1.40;0.70;;;;;;;23.30;55.57;98174.59;15285386;19;20382;-53
2022/06/23 08:20:45;;;;;;;3.35;0.55;;;;;;;23.81;51.36;98171.78;15283045;19;20395;-55
2022/06/23 08:25:50;;;;;;;1.48;0.50;;;;;;;24.15;51.12;98174.44;15280227;19;20014;-54
2022/06/23 08:30:55;;;;;;;2.40;0.65;;;;;;;24.45;49.40;98181.41;15277951;19;20031;-57
2022/06/23 08:36:11;;;;;;;3.47;0.80;;;;;;;24.71;47.68;98171.50;15278793;19;20022;-57
2022/06/23 08:41:26;;;;;;;2.90;0.60;;;;;;;24.93;46.85;98174.22;15281303;19;20090;-58
2022/06/23 08:46:59;;;;;;;2.58;0.57;;;;;;;25.14;47.13;98168.88;15272369;19;20018;-53
2022/06/23 08:52:12;;;;;;;1.80;0.65;;;;;;;25.31;46.28;98156.88;15279653;19;20024;-56
2022/06/23 08:57:24;;;;;;;1.65;0.60;;;;;;;25.47;45.71;98175.22;15276479;19;20026;-59
2022/06/23 09:02:35;;;;;;;1.17;0.57;;;;;;;25.66;46.91;98174.78;15281702;19;20015;-61
2022/06/23 09:08:10;;;;;;;1.15;0.60;;;;;;;25.77;45.85;98165.47;15276828;19;20010;-55
2022/06/23 09:13:33;;;;;;;3.15;0.70;;;;;;;25.79;46.16;98160.53;15279430;19;20010;-53
2022/06/23 09:18:55;;;;;;;1.55;0.70;;;;;;;25.96;47.02;98145.69;15273070;19;20713;-60
2022/06/23 09:30:00;;;;;;;1.98;0.60;;;;;;;26.11;49.27;98143.03;15279820;19;20014;-53
2022/06/23 09:35:33;;;;;;;2.25;0.82;;;;;;;26.27;48.30;98143.09;15274678;19;20504;-56
2022/06/23 09:40:48;;;;;;;2.08;0.70;;;;;;;26.34;49.61;98132.63;15272615;19;20578;-58
2022/06/23 09:46:13;;;;;;;2.90;0.60;;;;;;;26.59;48.31;98126.31;15270997;19;20006;-54
2022/06/23 09:51:37;;;;;;;3.53;0.77;;;;;;;26.65;47.47;98129.91;15271313;19;20011;-53
2022/06/23 09:56:59;;;;;;;3.75;0.77;;;;;;;26.82;47.03;98117.81;15273258;19;20018;-54
2022/06/23 10:02:13;;;;;;;1.23;0.70;;;;;;;27.02;46.53;98114.22;15277944;19;20038;-54
2022/06/23 10:07:49;;;;;;;2.03;0.73;;;;;;;27.20;45.80;98112.84;15271146;19;20031;-56
2022/06/23 10:13:14;;;;;;;6.43;0.68;;;;;;;27.19;45.30;98111.16;15275678;19;20047;-54
2022/06/23 10:18:59;;;;;;;2.53;0.90;;;;;;;27.40;45.22;98111.97;15276744;19;20010;-60
2022/06/23 10:24:37;;;;;;;2.17;0.68;;;;;;;27.55;45.18;98107.53;15261646;19;20370;-52
2022/06/23 10:30:06;;;;;;;2.78;0.80;;;;;;;27.67;45.16;98108.91;15276243;19;20492;-54
2022/06/23 10:35:46;;;;;;;1.27;0.60;;;;;;;27.81;44.44;98105.53;15267452;19;20021;-52
2022/06/23 10:41:20;;;;;;;5.43;0.82;;;;;;;27.94;43.73;98093.00;15271150;19;20018;-53
2022/06/23 10:46:34;;;;;;;4.45;0.73;;;;;;;28.10;43.07;98091.88;15268824;19;20043;-57
2022/06/23 10:51:53;;;;;;;1.50;0.57;;;;;;;28.22;42.28;98093.47;15276233;19;20029;-56
2022/06/23 10:57:24;;;;;;;1.60;0.70;;;;;;;28.34;42.56;98093.09;15268400;19;20523;-56
2022/06/23 11:02:57;;;;;;;3.50;0.70;;;;;;;28.42;40.27;98098.03;15273200;19;20108;-56
2022/06/23 11:08:15;;;;;;;0.50;0.40;;;;;;;28.55;39.60;98077.19;15269515;19;20034;-52
2022/06/23 11:13:31;;;;;;;1.52;0.60;;;;;;;28.63;41.18;98070.22;15266307;19;20030;-51
2022/06/23 11:18:54;;;;;;;1.98;0.55;;;;;;;28.89;40.01;98074.44;15273307;19;20369;-52
2022/06/23 11:24:07;;;;;;;1.77;0.70;;;;;;;29.17;38.90;98069.19;15281871;19;20019;-52
2022/06/23 11:29:30;;;;;;;2.33;0.70;;;;;;;29.25;38.54;98055.81;15288421;19;20026;-55
2022/06/23 11:34:52;;;;;;;2.70;0.70;;;;;;;29.42;39.38;98050.66;15283065;19;20459;-56
2022/06/23 11:40:32;;;;;;;1.52;0.40;;;;;;;29.58;38.14;98039.41;15286463;19;20017;-56
2022/06/23 11:45:49;;;;;;;1.90;0.50;;;;;;;29.78;38.28;98030.81;15277281;19;19999;-56
2022/06/23 11:51:04;;;;;;;2.25;0.50;;;;;;;29.85;37.40;98033.22;15287103;19;20491;-56
2022/06/23 11:56:21;;;;;;;3.83;0.50;;;;;;;29.97;37.65;98036.41;15281269;19;20035;-59
2022/06/23 12:01:28;;;;;;;1.23;0.45;;;;;;;30.02;37.83;98027.19;15286190;19;20018;-56
2022/06/23 12:06:46;;;;;;;0.50;0.40;;;;;;;30.09;36.70;98026.81;15278201;19;20021;-59
2022/06/23 12:11:51;;;;;;;2.08;0.80;;;;;;;30.18;38.30;98008.34;15285067;19;20014;-55
2022/06/23 12:17:00;;;;;;;1.77;0.70;;;;;;;30.51;37.98;98000.03;15276139;19;20014;-57
2022/06/23 12:22:16;;;;;;;2.58;0.52;;;;;;;30.66;36.80;98000.94;15284711;19;20019;-55
2022/06/23 12:27:27;;;;;;;5.93;0.90;;;;;;;30.52;36.64;97993.34;15278890;19;20022;-56
2022/06/23 12:32:44;;;;;;;1.85;0.55;;;;;;;30.80;35.83;97995.41;15272335;19;20050;-56
2022/06/23 12:37:57;;;;;;;2.03;0.60;;;;;;;30.71;34.56;97993.34;15279042;19;20027;-57
2022/06/23 12:43:11;;;;;;;2.75;0.60;;;;;;;31.10;36.54;97979.31;15281118;19;20038;-56
2022/06/23 12:54:29;;;;;;;2.55;0.70;;;;;;;31.02;35.13;97976.09;15274868;19;20039;-59
2022/06/23 12:59:43;;;;;;;0.70;0.55;;;;;;;31.60;36.15;97982.19;15282011;19;20343;-52
2022/06/23 13:04:53;;;;;;;1.60;0.60;;;;;;;31.95;35.56;97978.97;15272801;19;20015;-57
2022/06/23 13:10:03;;;;;;;;;;;;;;;32.06;34.04;97971.19;15282314;19;20010;-58
2022/06/23 13:15:17;;;;;;;2.38;0.52;;;;;;;32.28;34.84;97951.72;15277095;19;19911;-52
2022/06/23 13:20:30;;;;;;;2.35;0.50;;;;;;;32.58;34.30;97952.09;15280764;19;20010;-55
2022/06/23 13:31:00;;;;;;;5.85;0.63;;;;;;;33.08;34.01;97933.50;15279590;19;20035;-55
2022/06/23 13:36:09;;;;;;;2.10;0.52;;;;;;;33.28;34.38;97939.66;15265106;19;20026;-51
2022/06/23 13:41:23;;;;;;;1.03;0.67;;;;;;;33.58;33.37;97937.13;15277908;19;20011;-56
2022/06/23 13:46:37;;;;;;;3.15;0.70;;;;;;;33.90;33.05;97921.09;15273034;19;20014;-57
2022/06/23 13:51:50;;;;;;;2.72;0.60;;;;;;;34.29;33.56;97918.44;15278920;19;20014;-56
2022/06/23 13:57:08;;;;;;;2.25;0.50;;;;;;;34.52;32.76;97908.72;15266371;19;20017;-54
2022/06/23 14:02:19;;;;;;;2.45;0.65;;;;;;;34.53;32.68;97904.75;15276841;19;20373;-55
2022/06/23 14:07:36;;;;;;;2.08;0.50;;;;;;;34.78;32.52;97893.00;15259005;19;20035;-59
2022/06/23 14:12:57;;;;;;;1.05;0.57;;;;;;;35.24;32.14;97896.91;15272832;19;20018;-56
2022/06/23 14:18:07;;;;;;;1.73;0.60;;;;;;;35.51;31.56;97885.59;15275493;19;20006;-54
2022/06/23 14:23:20;;;;;;;7.45;0.98;;;;;;;35.56;31.79;97883.44;15273493;19;20006;-55
2022/06/23 14:28:34;;;;;;;3.80;0.80;;;;;;;35.97;31.45;97891.34;15265566;19;20366;-56
2022/06/23 14:33:48;;;;;;;4.45;0.70;;;;;;;35.83;31.00;97886.81;15272177;19;20014;-56
2022/06/23 14:39:00;;;;;;;1.40;0.70;;;;;;;36.02;30.32;97879.94;15265960;19;21345;-55
2022/06/23 14:44:30;;;;;;;3.05;0.50;;;;;;;36.04;30.64;97872.03;15270739;19;20011;-55
2022/06/23 14:49:52;;;;;;;;;;;;;;;36.30;30.51;97866.13;15269875;19;20014;-57
2022/06/23 14:55:10;;;;;;;2.45;0.60;;;;;;;36.23;30.58;97863.06;15272121;19;20258;-55
2022/06/23 15:00:39;;;;;;;2.92;0.50;;;;;;;36.47;29.56;97865.16;15280873;19;20043;-56
2022/06/23 15:05:56;;;;;;;1.55;0.50;;;;;;;36.07;29.57;97851.69;15282940;19;20013;-57
2022/06/23 15:11:08;;;;;;;4.55;0.70;;;;;;;36.22;30.40;97848.25;15280628;19;20039;-58
2022/06/23 15:16:23;;;;;;;1.73;0.60;;;;;;;36.48;29.83;97843.53;15281666;19;20046;-57
2022/06/23 15:26:59;;;;;;;5.25;0.57;;;;;;;36.56;29.60;97828.59;15282453;19;20460;-57
2022/06/23 15:32:20;;;;;;;3.10;0.60;;;;;;;36.77;29.62;97834.09;15282674;19;20035;-56
2022/06/23 15:37:36;;;;;;;4.05;0.70;;;;;;;36.68;29.55;97830.56;15278482;19;20457;-57
2022/06/23 15:42:51;;;;;;;2.97;0.70;;;;;;;36.54;29.33;97820.50;15278833;19;20030;-57
2022/06/23 15:48:11;;;;;;;0.70;0.50;;;;;;;36.20;29.92;97822.53;15281334;19;20021;-58
2022/06/23 15:53:21;;;;;;;4.63;0.70;;;;;;;36.07;29.46;97818.03;15282927;19;20472;-55
2022/06/23 15:58:33;;;;;;;1.88;0.52;;;;;;;35.88;29.97;97813.75;15285738;19;20015;-56
2022/06/23 16:03:45;;;;;;;1.42;0.50;;;;;;;36.15;29.81;97814.34;15277636;19;20011;-57
2022/06/23 16:08:55;;;;;;;4.32;0.60;;;;;;;35.79;29.93;97804.63;15280910;19;20768;-59
2022/06/23 16:14:06;;;;;;;1.85;0.50;;;;;;;35.52;29.78;97809.63;15278979;19;20014;-57
2022/06/23 16:19:24;;;;;;;1.65;0.50;;;;;;;35.56;30.09;97804.16;14767573;19;10001686;-59
2022/06/23 16:24:35;;;;;;;1.30;0.60;;;;;;;35.58;29.99;97802.63;15280252;19;20048;-56
2022/06/23 16:29:54;;;;;;;2.00;0.65;;;;;;;35.21;29.36;97791.22;15280968;19;20011;-57
2022/06/23 16:35:09;;;;;;;1.02;0.50;;;;;;;35.11;29.65;97784.03;15280955;19;20025;-57
2022/06/23 16:40:24;;;;;;;0.93;0.40;;;;;;;34.84;30.26;97783.34;15279301;19;20090;-58
2022/06/23 16:45:38;;;;;;;1.55;0.60;;;;;;;34.54;30.07;97783.34;15276752;19;20006;-58
2022/06/23 16:50:54;;;;;;;6.38;0.50;;;;;;;34.50;29.40;97764.78;15274960;19;20447;-58
2022/06/23 16:56:09;;;;;;;3.30;0.50;;;;;;;34.44;29.92;97760.53;15274001;19;20021;-58
2022/06/23 17:01:24;;;;;;;2.42;0.60;;;;;;;34.30;29.82;97764.31;15281084;19;20590;-60
2022/06/23 17:12:13;;;;;;;2.53;0.63;;;;;;;34.07;30.53;97769.34;15273146;19;20494;-58
2022/06/23 17:17:23;;;;;;;1.30;0.50;;;;;;;33.78;29.73;97768.06;15271000;19;20014;-56
2022/06/23 17:22:33;;;;;;;0.70;0.50;;;;;;;33.35;29.87;97766.94;15273563;19;20039;-57
2022/06/23 17:27:49;;;;;;;1.88;0.50;;;;;;;33.14;30.16;97773.13;15275994;19;20006;-56
2022/06/23 17:33:03;;;;;;;1.92;0.50;;;;;;;32.87;30.24;97761.09;15279017;19;20018;-56
2022/06/23 17:43:48;;;;;;;2.15;0.40;;;;;;;32.51;31.03;97767.72;15273491;19;20494;-57
2022/06/23 17:49:00;;;;;;;1.00;0.50;;;;;;;32.44;31.35;97770.13;15272149;19;20373;-54
2022/06/23 17:54:11;;;;;;;0.85;0.50;;;;;;;32.14;30.69;97778.19;15269252;19;20035;-56
2022/06/23 17:59:25;;;;;;;1.85;0.57;;;;;;;31.85;30.46;97770.31;15277750;19;20018;-57
2022/06/23 18:04:45;;;;;;;1.02;0.50;;;;;;;31.62;31.30;97773.06;15274979;19;20018;-58
2022/06/23 18:09:52;;;;;;;2.42;0.40;;;;;;;31.32;31.24;97779.06;15265418;19;20824;-56
2022/06/23 18:15:19;;;;;;;0.50;0.40;;;;;;;31.11;31.55;97767.53;15266170;19;20019;-56
2022/06/23 18:20:35;;;;;;;0.57;0.40;;;;;;;30.75;32.00;97768.31;15275894;19;20014;-54
2022/06/23 18:25:48;;;;;;;2.72;0.50;;;;;;;30.46;32.33;97763.88;15266272;19;20404;-64
2022/06/23 18:31:02;;;;;;;1.63;0.57;;;;;;;30.05;32.75;97764.66;15279636;19;20046;-56
2022/06/23 18:36:14;;;;;;;3.13;0.45;;;;;;;29.64;33.18;97771.72;15285257;19;20039;-55
2022/06/23 18:41:24;;;;;;;5.07;0.50;;;;;;;29.36;33.63;97769.66;15266788;19;20014;-53
2022/06/23 18:46:41;;;;;;;0.63;0.38;;;;;;;28.83;34.11;97765.13;15279113;19;20138;-59
2022/06/23 18:51:47;;;;;;;0.80;0.45;;;;;;;28.54;34.54;97763.22;15291063;19;20007;-59
2022/06/23 18:56:54;;;;;;;3.13;0.40;;;;;;;28.15;35.30;97764.22;15277694;19;20007;-59
2022/06/23 19:02:06;;;;;;;1.50;0.50;;;;;;;27.90;35.28;97763.34;15291105;19;20010;-59
2022/06/23 19:07:32;;;;;;;2.55;0.68;;;;;;;27.55;36.11;97761.69;15284688;19;20031;-61
2022/06/23 19:12:44;;;;;;;1.73;0.57;;;;;;;27.23;36.66;97761.06;15289148;19;20073;-59
2022/06/23 19:17:58;;;;;;;2.63;0.50;;;;;;;26.91;36.78;97767.88;15278011;19;20042;-60
2022/06/23 19:23:14;;;;;;;1.60;0.55;;;;;;;26.64;37.32;97769.09;15289742;19;20121;-61
2022/06/23 19:28:28;;;;;;;1.77;0.50;;;;;;;26.41;37.72;97776.09;15262598;19;20502;-57
2022/06/23 19:33:42;;;;;;;2.85;0.68;;;;;;;26.26;39.26;97774.22;15285788;19;20043;-55
2022/06/23 19:39:04;;;;;;;1.45;0.50;;;;;;;26.04;38.59;97772.56;15286034;19;20494;-58
2022/06/23 19:44:34;;;;;;;3.97;0.60;;;;;;;25.84;39.25;97779.75;15280575;19;20170;-56
2022/06/23 19:49:49;;;;;;;0.88;0.50;;;;;;;25.62;40.29;97773.69;15277927;19;20120;-58
2022/06/23 19:55:06;;;;;;;0.95;0.50;;;;;;;25.52;39.59;97777.25;15283355;19;20014;-56
2022/06/23 20:00:18;;;;;;;1.95;0.60;;;;;;;25.35;40.10;97774.72;15278255;19;20014;-57
2022/06/23 20:05:39;;;;;;;1.40;0.68;;;;;;;25.23;40.16;97769.50;15281687;19;20048;-56
2022/06/23 20:10:49;;;;;;;1.38;0.60;;;;;;;25.11;40.09;97772.50;15281338;19;20788;-57
2022/06/23 20:16:02;;;;;;;0.90;0.57;;;;;;;25.02;40.97;97768.63;15280949;19;20555;-56
2022/06/23 20:21:24;;;;;;;1.05;0.43;;;;;;;24.87;41.24;97767.47;15284153;19;20018;-59
2022/06/23 20:26:38;;;;;;;1.52;0.70;;;;;;;24.83;40.64;97766.38;15273350;19;20007;-54
2022/06/23 20:31:52;;;;;;;2.95;0.60;;;;;;;24.69;41.25;97754.19;15277441;19;20007;-57
2022/06/23 20:37:21;;;;;;;0.93;0.50;;;;;;;24.57;41.86;97757.97;15276250;19;20414;-54
2022/06/23 20:42:33;;;;;;;0.98;0.52;;;;;;;24.45;42.26;97762.88;15284395;19;20006;-56
2022/06/23 20:47:58;;;;;;;1.70;0.60;;;;;;;24.38;42.41;97759.56;15278589;19;20359;-56
2022/06/23 20:53:15;;;;;;;1.00;0.60;;;;;;;24.25;42.79;97755.34;15280597;19;20019;-56
2022/06/23 20:58:30;;;;;;;1.48;0.60;;;;;;;24.14;43.14;97766.31;15272781;19;20015;-58
2022/06/23 21:03:46;;;;;;;1.85;0.90;;;;;;;24.03;43.38;97763.78;15282138;19;20038;-56
2022/06/23 21:09:02;;;;;;;3.15;0.77;;;;;;;23.98;43.52;97768.13;15274770;19;20025;-57
2022/06/23 21:14:16;;;;;;;1.88;0.60;;;;;;;23.88;44.33;97759.78;15275763;19;20022;-53
2022/06/23 21:19:39;;;;;;;0.60;0.50;;;;;;;23.77;44.39;97769.88;15276472;19;20022;-52
2022/06/23 21:25:01;;;;;;;1.75;0.73;;;;;;;23.63;45.04;97761.25;15247386;19;20399;-57
2022/06/23 21:30:16;;;;;;;2.08;0.60;;;;;;;23.52;45.26;97760.31;15269394;19;20043;-53
2022/06/23 21:35:28;;;;;;;0.80;0.60;;;;;;;23.42;45.71;97753.94;15275162;19;20018;-54
2022/06/23 21:40:40;;;;;;;1.38;0.70;;;;;;;23.32;46.09;97755.50;15272328;19;20717;-53
2022/06/23 21:45:51;;;;;;;4.00;0.60;;;;;;;23.26;45.93;97751.03;15275732;19;20006;-54
2022/06/23 21:51:11;;;;;;;1.80;0.70;;;;;;;23.17;46.71;97752.56;15276754;19;20074;-59
2022/06/23 21:56:40;;;;;;;1.60;0.70;;;;;;;23.08;46.89;97754.94;15274314;19;20017;-56
2022/06/23 22:01:53;;;;;;;;;;;;;;;22.90;47.79;97751.47;15276442;19;20014;-58
2022/06/23 22:07:05;;;;;;;2.47;0.70;;;;;;;22.87;46.72;97754.75;15273214;19;19915;-59
2022/06/23 22:12:26;;;;;;;2.47;0.93;;;;;;;22.82;47.63;97756.59;15271682;19;20018;-58
2022/06/23 22:17:35;;;;;;;3.35;0.90;;;;;;;22.72;47.17;97758.16;15273604;19;20035;-59
2022/06/23 22:23:14;;;;;;;2.72;0.70;;;;;;;22.61;48.30;97756.38;15277178;19;20019;-60
2022/06/23 22:28:21;;;;;;;3.05;0.80;;;;;;;22.54;47.87;97758.47;15273183;19;20031;-60
2022/06/23 22:33:54;;;;;;;2.40;0.80;;;;;;;22.38;49.21;97750.03;15270254;19;20084;-58
2022/06/23 22:39:05;;;;;;;5.82;0.88;;;;;;;22.32;48.58;97754.63;15275691;19;20019;-61
2022/06/23 22:44:39;;;;;;;;;;;;;;;22.22;49.87;97759.97;15265859;19;20014;-58
2022/06/23 22:49:47;;;;;;;3.30;0.75;;;;;;;22.04;49.70;97743.78;15274470;19;19977;-57
2022/06/23 22:54:53;;;;;;;1.67;0.75;;;;;;;21.93;50.22;97751.06;15273404;19;20010;-53
2022/06/23 23:00:23;;;;;;;2.42;0.60;;;;;;;21.80;50.91;97753.06;15276468;19;20490;-61
2022/06/23 23:05:32;;;;;;;1.15;0.90;;;;;;;21.68;51.18;97749.59;15264537;19;20028;-57
2022/06/23 23:10:50;;;;;;;2.42;0.73;;;;;;;21.56;51.42;97749.63;15268713;19;20014;-57
2022/06/23 23:16:00;;;;;;;1.73;0.68;;;;;;;21.52;51.42;97745.75;15262810;19;20018;-57
2022/06/23 23:21:16;;;;;;;2.33;0.87;;;;;;;21.46;51.41;97746.72;15290452;19;20011;-61
2022/06/23 23:26:38;;;;;;;1.45;0.63;;;;;;;21.38;51.42;97745.22;15282829;19;20019;-60
2022/06/23 23:31:55;;;;;;;1.48;0.73;;;;;;;21.35;51.05;97746.56;15284048;19;20017;-59
2022/06/23 23:37:00;;;;;;;1.63;0.65;;;;;;;21.32;51.28;97738.00;15278837;19;20038;-58
2022/06/23 23:42:09;;;;;;;2.92;0.80;;;;;;;21.28;51.15;97723.13;15289781;19;20038;-58
2022/06/23 23:47:19;;;;;;;3.30;0.68;;;;;;;21.21;51.59;97729.63;15273550;19;20503;-57
2022/06/23 23:52:28;;;;;;;1.20;0.70;;;;;;;21.18;51.00;97726.50;15288149;19;20014;-52
2022/06/23 23:57:39;;;;;;;2.15;0.68;;;;;;;21.17;51.21;97727.63;15283241;19;20024;-56
